Time;durP1;ratioP1;P1;durP2;ratioP2;P2;SDS_P1;SDS_P2;PMS_P1;PMS_P2;Temp;Humidity;BMP_temperature;BMP_pressure;BME280_temperature;BME280_humidity;BME280_pressure;Samples;Min_cycle;Max_cycle;Signal;HPM_P1;HPM_P2
2021/04/05 00:00:55;;;;;;;4.93;2.40;;;5.50;68.10;;;;;;5078911;28;20024;-72
2021/04/05 00:03:21;;;;;;;3.50;2.17;;;5.40;68.50;;;;;;5079103;28;20036;-72
2021/04/05 00:05:47;;;;;;;3.28;2.42;;;5.30;68.60;;;;;;5078801;28;20093;-72
2021/04/05 00:08:12;;;;;;;6.35;2.25;;;5.30;69.00;;;;;;5061030;28;20056;-72
2021/04/05 00:10:44;;;;;;;5.93;2.42;;;5.40;67.90;;;;;;5078645;28;20032;-71
2021/04/05 00:13:15;;;;;;;8.52;2.47;;;5.40;68.10;;;;;;5078462;28;20428;-72
2021/04/05 00:15:40;;;;;;;4.55;2.40;;;5.40;68.30;;;;;;5078791;28;20518;-71
2021/04/05 00:18:06;;;;;;;4.40;2.08;;;5.30;68.60;;;;;;5079017;28;20020;-72
2021/04/05 00:20:36;;;;;;;4.97;2.40;;;5.40;68.80;;;;;;5078507;28;20034;-72
2021/04/05 00:23:02;;;;;;;5.28;2.58;;;5.50;68.70;;;;;;5078713;28;20039;-72
2021/04/05 00:25:28;;;;;;;3.58;2.28;;;5.50;68.70;;;;;;5060554;28;20024;-72
2021/04/05 00:27:54;;;;;;;9.45;2.88;;;5.50;69.20;;;;;;5078368;28;20028;-72
2021/04/05 00:30:26;;;;;;;6.43;2.40;;;5.40;69.00;;;;;;5078215;28;20074;-72
2021/04/05 00:32:53;;;;;;;7.30;3.17;;;5.40;68.50;;;;;;5078462;28;20371;-72
2021/04/05 00:35:22;;;;;;;4.88;2.75;;;5.30;68.80;;;;;;5078206;28;20348;-72
2021/04/05 00:37:49;;;;;;;5.18;2.50;;;5.30;69.30;;;;;;5078215;28;20070;-72
2021/04/05 00:40:20;;;;;;;8.52;2.88;;;5.40;68.70;;;;;;5078433;28;20025;-72
2021/04/05 00:42:47;;;;;;;3.20;2.40;;;5.40;69.00;;;;;;5078385;28;20070;-72
2021/04/05 00:45:16;;;;;;;5.32;2.60;;;5.30;69.40;;;;;;5077967;28;20024;-72
2021/04/05 00:47:51;;;;;;;5.65;3.30;;;5.30;69.70;;;;;;5077980;28;20036;-72
2021/04/05 00:50:25;;;;;;;5.60;2.45;;;5.30;69.70;;;;;;5078018;28;20431;-72
2021/04/05 00:52:52;;;;;;;9.38;2.40;;;5.20;69.40;;;;;;5078192;28;20043;-72
2021/04/05 00:55:19;;;;;;;6.82;2.40;;;5.10;69.40;;;;;;5077795;28;20025;-72
2021/04/05 00:57:45;;;;;;;3.45;2.47;;;5.10;69.70;;;;;;5077808;28;20070;-73
2021/04/05 01:00:19;;;;;;;5.55;2.42;;;5.00;69.80;;;;;;5077787;28;20024;-74
2021/04/05 01:02:46;;;;;;;6.47;2.78;;;4.90;70.20;;;;;;5060030;28;20032;-74
2021/04/05 01:05:13;;;;;;;7.78;2.15;;;4.90;70.60;;;;;;5059838;28;20332;-74
2021/04/05 01:07:39;;;;;;;3.80;2.25;;;4.80;70.90;;;;;;5077606;28;20019;-74
2021/04/05 01:10:08;;;;;;;5.00;2.45;;;4.80;71.00;;;;;;5077526;28;20052;-74
2021/04/05 01:12:34;;;;;;;5.57;2.70;;;4.80;71.00;;;;;;5059697;28;20099;-74
2021/04/05 01:14:59;;;;;;;7.35;2.58;;;4.80;70.80;;;;;;5077394;28;20151;-74
2021/04/05 01:17:25;;;;;;;4.75;2.33;;;4.80;70.90;;;;;;5077415;28;20028;-71
2021/04/05 01:19:51;;;;;;;5.53;2.55;;;4.80;70.90;;;;;;5077396;28;20028;-72
2021/04/05 01:22:17;;;;;;;5.57;2.42;;;4.80;71.30;;;;;;5076851;28;20032;-73
2021/04/05 01:24:43;;;;;;;5.65;2.80;;;4.80;70.90;;;;;;5077133;28;20412;-72
2021/04/05 01:27:09;;;;;;;5.60;2.75;;;4.90;70.90;;;;;;5077445;28;20033;-72
2021/04/05 01:29:36;;;;;;;6.20;2.55;;;5.00;70.70;;;;;;5077042;28;20325;-72
2021/04/05 01:32:02;;;;;;;5.18;2.97;;;5.00;70.30;;;;;;5077081;28;20021;-73
2021/04/05 01:34:28;;;;;;;4.35;2.70;;;5.00;70.30;;;;;;5059305;28;20030;-73
2021/04/05 01:37:00;;;;;;;9.05;2.55;;;5.00;70.40;;;;;;5077088;28;20024;-72
2021/04/05 01:39:27;;;;;;;4.20;2.55;;;5.00;70.90;;;;;;5077074;28;20040;-72
2021/04/05 01:41:52;;;;;;;3.22;2.50;;;5.00;69.90;;;;;;5076984;28;20017;-72
2021/04/05 01:44:18;;;;;;;5.30;2.20;;;5.10;69.80;;;;;;5077087;28;20039;-71
2021/04/05 01:46:44;;;;;;;7.97;2.50;;;5.10;70.20;;;;;;5076939;28;20108;-72
2021/04/05 01:49:10;;;;;;;3.80;2.33;;;5.00;70.70;;;;;;5076876;28;20416;-72
2021/04/05 01:51:36;;;;;;;5.53;2.67;;;4.90;70.90;;;;;;5077042;28;20063;-72
2021/04/05 01:54:01;;;;;;;5.38;2.65;;;4.80;70.90;;;;;;5077169;28;20037;-72
2021/04/05 01:56:27;;;;;;;7.05;3.08;;;4.80;70.40;;;;;;5077071;28;20440;-72
2021/04/05 01:58:54;;;;;;;3.40;2.08;;;4.90;70.50;;;;;;5076789;28;20027;-72
2021/04/05 02:01:27;;;;;;;3.58;2.33;;;4.90;70.60;;;;;;5058968;28;20359;-72
2021/04/05 02:03:54;;;;;;;5.18;2.67;;;4.90;70.20;;;;;;5076819;28;20028;-72
2021/04/05 02:06:25;;;;;;;5.45;2.60;;;5.00;69.40;;;;;;5076685;28;20017;-71
2021/04/05 02:08:51;;;;;;;5.80;2.65;;;5.00;69.40;;;;;;5077151;28;20032;-72
2021/04/05 02:11:25;;;;;;;8.25;2.80;;;5.10;70.30;;;;;;5077248;28;20097;-72
2021/04/05 02:13:54;;;;;;;3.78;2.13;;;5.10;69.90;;;;;;5076762;28;20032;-72
2021/04/05 02:16:21;;;;;;;6.13;2.13;;;5.10;68.90;;;;;;5076601;28;20039;-72
2021/04/05 02:18:48;;;;;;;8.77;4.13;;;5.10;69.00;;;;;;5076613;28;20377;-71
2021/04/05 02:21:16;;;;;;;2.17;1.73;;;5.10;68.10;;;;;;5076564;28;20031;-72
2021/04/05 02:23:43;;;;;;;3.22;1.80;;;5.10;67.30;;;;;;5076880;28;20408;-73
2021/04/05 02:26:11;;;;;;;4.28;2.05;;;5.10;67.00;;;;;;5076535;28;20024;-72
2021/04/05 02:28:45;;;;;;;4.90;2.17;;;5.10;67.40;;;;;;5076314;28;20048;-72
2021/04/05 02:31:13;;;;;;;4.90;2.22;;;5.00;68.00;;;;;;5076470;28;20081;-73
2021/04/05 02:33:41;;;;;;;5.72;1.70;;;4.90;67.70;;;;;;5077928;28;20025;-73
2021/04/05 02:36:11;;;;;;;7.47;2.50;;;4.90;68.00;;;;;;5081248;28;20315;-73
2021/04/05 02:38:38;;;;;;;4.50;1.85;;;4.70;68.60;;;;;;5080520;28;20024;-72
2021/04/05 02:41:07;;;;;;;2.33;1.80;;;4.70;68.30;;;;;;5080490;28;20048;-72
2021/04/05 02:43:34;;;;;;;3.97;1.70;;;4.80;68.90;;;;;;5080321;28;20028;-72
2021/04/05 02:46:01;;;;;;;3.58;1.98;;;4.70;68.70;;;;;;5080322;28;20449;-72
2021/04/05 02:48:30;;;;;;;4.32;2.03;;;4.60;67.80;;;;;;5080523;28;20328;-72
2021/04/05 02:50:57;;;;;;;5.22;2.50;;;4.60;69.10;;;;;;5080236;28;20409;-72
2021/04/05 02:53:23;;;;;;;6.68;2.20;;;4.60;68.80;;;;;;5080368;28;20385;-72
2021/04/05 02:55:49;;;;;;;5.13;2.25;;;4.70;69.20;;;;;;5062375;28;20025;-72
2021/04/05 02:58:16;;;;;;;3.67;2.22;;;4.60;69.00;;;;;;5062343;28;20028;-72
2021/04/05 03:00:42;;;;;;;5.35;2.10;;;4.50;70.20;;;;;;5062265;28;20112;-72
2021/04/05 03:03:08;;;;;;;3.67;2.30;;;4.50;70.00;;;;;;5079925;28;20058;-72
2021/04/05 03:05:36;;;;;;;4.03;2.45;;;4.40;70.50;;;;;;5079916;28;20028;-73
2021/04/05 03:08:02;;;;;;;3.45;1.90;;;4.50;68.80;;;;;;5079932;28;20328;-72
2021/04/05 03:10:34;;;;;;;4.97;2.08;;;4.60;66.00;;;;;;5079828;28;20029;-72
2021/04/05 03:13:01;;;;;;;3.85;1.45;;;4.70;64.20;;;;;;5062029;28;20029;-72
2021/04/05 03:15:27;;;;;;;2.53;1.40;;;5.00;61.10;;;;;;5061987;28;20372;-72
2021/04/05 03:17:59;;;;;;;2.88;1.50;;;5.20;60.40;;;;;;5079967;28;20293;-72
2021/04/05 03:20:29;;;;;;;3.22;1.70;;;5.40;62.20;;;;;;5079701;28;20021;-73
2021/04/05 03:22:55;;;;;;;3.65;1.90;;;5.30;63.90;;;;;;5079874;28;20037;-72
2021/04/05 03:25:23;;;;;;;5.13;1.95;;;5.20;63.80;;;;;;5079506;28;20130;-72
2021/04/05 03:27:50;;;;;;;2.47;1.50;;;5.00;64.00;;;;;;5079549;28;20316;-72
2021/04/05 03:30:31;;;;;;;2.92;1.60;;;4.70;63.80;;;;;;5079324;28;20060;-72
2021/04/05 03:33:27;;;;;;;2.47;1.50;;;4.60;64.50;;;;;;5079382;28;20370;-73
2021/04/05 03:35:59;;;;;;;2.83;1.73;;;4.70;64.80;;;;;;5079409;28;20027;-72
2021/04/05 03:38:25;;;;;;;2.40;1.67;;;4.60;64.00;;;;;;5061640;28;20027;-71
2021/04/05 03:40:52;;;;;;;2.42;1.45;;;4.70;63.80;;;;;;5079312;28;20021;-73
2021/04/05 03:43:35;;;;;;;2.95;1.98;;;4.70;63.50;;;;;;5079204;28;20096;-72
2021/04/05 03:46:14;;;;;;;5.07;1.48;;;4.80;62.70;;;;;;5079356;28;20103;-72
2021/04/05 03:48:57;;;;;;;4.38;1.60;;;4.90;63.90;;;;;;5079369;28;20419;-72
2021/04/05 03:51:37;;;;;;;3.05;1.50;;;4.70;64.20;;;;;;5079534;28;20056;-72
2021/04/05 03:54:07;;;;;;;4.95;1.70;;;4.60;65.00;;;;;;5061068;28;20035;-72
2021/04/05 03:56:39;;;;;;;4.60;1.60;;;4.50;65.90;;;;;;5079258;28;20067;-72
2021/04/05 03:59:09;;;;;;;6.80;1.90;;;4.30;65.00;;;;;;5079155;28;20101;-72
2021/04/05 04:01:53;;;;;;;2.40;1.35;;;4.20;66.00;;;;;;5078917;28;20035;-72
2021/04/05 04:04:29;;;;;;;4.90;1.58;;;4.00;66.90;;;;;;5078949;28;20081;-72
2021/04/05 04:09:33;;;;;;;3.13;1.42;;;4.40;65.00;;;;;;5079092;28;20043;-72
2021/04/05 04:12:01;;;;;;;1.98;1.50;;;4.50;64.40;;;;;;5078668;28;20096;-72
2021/04/05 04:14:27;;;;;;;2.78;1.80;;;4.40;63.80;;;;;;5078878;28;20035;-72
2021/04/05 04:16:54;;;;;;;6.32;1.40;;;4.50;62.20;;;;;;5078583;28;20048;-72
2021/04/05 04:19:21;;;;;;;2.25;1.52;;;4.60;60.90;;;;;;5078692;28;20428;-72
2021/04/05 04:21:48;;;;;;;3.35;1.40;;;4.70;63.20;;;;;;5078475;28;20020;-72
2021/04/05 04:24:15;;;;;;;2.38;1.40;;;4.70;64.20;;;;;;5078464;28;20079;-72
2021/04/05 04:26:41;;;;;;;2.25;1.40;;;4.50;62.90;;;;;;5078428;28;20316;-73
2021/04/05 04:29:14;;;;;;;3.13;1.50;;;4.40;63.10;;;;;;5078204;28;20060;-74
2021/04/05 04:31:40;;;;;;;2.67;1.70;;;4.40;63.20;;;;;;5078433;28;20020;-74
2021/04/05 04:34:06;;;;;;;2.60;1.35;;;4.30;62.80;;;;;;5078172;28;20100;-74
2021/04/05 04:36:32;;;;;;;1.88;1.30;;;4.20;63.50;;;;;;5060510;28;20052;-74
2021/04/05 04:38:58;;;;;;;3.35;1.60;;;4.30;62.50;;;;;;5078471;28;20117;-74
2021/04/05 04:41:27;;;;;;;4.47;1.90;;;4.40;63.30;;;;;;5078154;28;20016;-74
2021/04/05 04:44:04;;;;;;;2.63;1.52;;;4.40;63.50;;;;;;5077977;28;20492;-73
2021/04/05 04:46:31;;;;;;;3.28;1.63;;;4.50;63.60;;;;;;5078305;28;20111;-72
2021/04/05 04:49:01;;;;;;;2.72;1.70;;;4.40;62.80;;;;;;5078018;28;20028;-72
2021/04/05 04:51:27;;;;;;;2.60;1.42;;;4.50;63.30;;;;;;5078322;28;20489;-72
2021/04/05 04:53:55;;;;;;;3.13;1.92;;;4.60;61.30;;;;;;5078174;28;20362;-72
2021/04/05 04:56:21;;;;;;;3.60;1.80;;;4.70;61.60;;;;;;5076983;28;20021;-72
2021/04/05 04:58:47;;;;;;;5.57;2.08;;;4.70;61.90;;;;;;5060099;28;20492;-72
2021/04/05 05:01:13;;;;;;;11.32;2.13;;;4.80;63.40;;;;;;5077763;28;20096;-72
2021/04/05 05:03:45;;;;;;;5.00;1.52;;;4.80;63.20;;;;;;5077879;28;20028;-72
2021/04/05 05:06:14;;;;;;;2.50;1.25;;;4.90;63.10;;;;;;5077690;28;20031;-72
2021/04/05 05:08:42;;;;;;;3.15;1.70;;;4.80;63.90;;;;;;5077886;28;20081;-72
2021/04/05 05:11:08;;;;;;;2.10;1.25;;;4.80;63.20;;;;;;5077582;28;20096;-72
2021/04/05 05:13:34;;;;;;;8.25;1.92;;;4.90;64.00;;;;;;5077343;28;20131;-72
2021/04/05 05:16:00;;;;;;;7.22;1.48;;;5.00;63.80;;;;;;5077722;28;20051;-72
2021/04/05 05:18:26;;;;;;;3.75;1.48;;;5.10;63.00;;;;;;5077624;28;20423;-72
2021/04/05 05:20:53;;;;;;;7.93;3.70;;;5.00;64.30;;;;;;5077588;28;20020;-72
2021/04/05 05:23:20;;;;;;;1.40;0.90;;;5.00;63.40;;;;;;5077522;28;20409;-72
2021/04/05 05:25:47;;;;;;;2.13;1.15;;;5.00;63.80;;;;;;5077257;28;20028;-72
2021/04/05 05:28:16;;;;;;;3.53;1.48;;;4.90;63.70;;;;;;5077157;28;20029;-72
2021/04/05 05:30:42;;;;;;;3.38;1.25;;;5.00;64.00;;;;;;5077240;28;20032;-72
2021/04/05 05:33:09;;;;;;;4.55;1.77;;;5.00;64.60;;;;;;5077260;28;20024;-72
2021/04/05 05:35:36;;;;;;;1.98;1.42;;;5.10;64.00;;;;;;5077072;28;20416;-72
2021/04/05 05:38:04;;;;;;;2.22;1.35;;;5.20;63.00;;;;;;5077054;28;20033;-72
2021/04/05 05:40:31;;;;;;;2.10;1.08;;;5.40;62.50;;;;;;5059357;28;20022;-72
2021/04/05 05:43:24;;;;;;;2.45;1.42;;;5.50;63.60;;;;;;5077002;28;20032;-72
2021/04/05 05:45:55;;;;;;;2.17;1.02;;;5.70;60.50;;;;;;5077158;28;20024;-72
2021/04/05 05:48:24;;;;;;;1.90;1.38;;;5.90;60.30;;;;;;5077391;28;20033;-72
2021/04/05 05:51:16;;;;;;;2.25;1.17;;;6.10;59.00;;;;;;5077460;28;20035;-72
2021/04/05 05:54:04;;;;;;;2.55;1.20;;;6.30;60.60;;;;;;5077229;28;20036;-72
2021/04/05 05:56:35;;;;;;;2.92;1.30;;;6.40;60.80;;;;;;5076887;28;20031;-72
2021/04/05 05:59:21;;;;;;;2.17;1.17;;;6.60;58.30;;;;;;5076839;28;20028;-71
2021/04/05 06:02:00;;;;;;;1.52;0.88;;;6.70;56.70;;;;;;5076897;28;20024;-71
2021/04/05 06:04:36;;;;;;;2.78;1.52;;;6.80;57.40;;;;;;5076836;28;20055;-72
2021/04/05 06:07:19;;;;;;;2.67;1.00;;;6.90;58.60;;;;;;5076759;28;20032;-72
2021/04/05 06:10:03;;;;;;;2.70;1.05;;;7.00;58.20;;;;;;5076788;28;20587;-72
2021/04/05 06:12:34;;;;;;;4.30;1.13;;;7.20;57.70;;;;;;5076737;28;20036;-72
2021/04/05 06:15:17;;;;;;;4.38;1.00;;;7.30;57.60;;;;;;5076825;28;20319;-72
2021/04/05 06:17:51;;;;;;;3.45;1.10;;;7.50;55.10;;;;;;5076951;28;20106;-72
2021/04/05 06:20:45;;;;;;;2.25;1.02;;;7.60;55.90;;;;;;5076717;28;20023;-72
2021/04/05 06:23:29;;;;;;;1.60;1.02;;;7.70;55.70;;;;;;5077074;28;20320;-72
2021/04/05 06:26:02;;;;;;;3.42;1.35;;;7.90;55.20;;;;;;5076617;28;20037;-72
2021/04/05 06:28:31;;;;;;;3.85;1.45;;;8.00;56.30;;;;;;5076406;28;20052;-72
2021/04/05 06:31:04;;;;;;;5.30;1.30;;;8.10;53.60;;;;;;5076481;28;20027;-72
2021/04/05 06:33:37;;;;;;;3.42;1.17;;;8.10;51.70;;;;;;5076569;28;20032;-72
2021/04/05 06:36:41;;;;;;;4.38;1.65;;;8.10;52.60;;;;;;5076610;28;20025;-72
2021/04/05 06:39:18;;;;;;;3.15;1.20;;;8.10;53.60;;;;;;5035587;28;20405;-71
2021/04/05 06:42:22;;;;;;;2.00;1.00;;;8.20;54.60;;;;;;5058735;28;20119;-72
2021/04/05 06:45:20;;;;;;;4.72;1.33;;;8.30;52.30;;;;;;5076482;28;20032;-72
2021/04/05 06:48:07;;;;;;;3.33;1.35;;;8.40;52.50;;;;;;5076668;28;20340;-72
2021/04/05 06:50:44;;;;;;;2.33;1.38;;;8.30;51.90;;;;;;5076331;28;20035;-72
2021/04/05 06:53:53;;;;;;;3.63;1.25;;;8.30;52.00;;;;;;5076444;28;20439;-72
2021/04/05 06:56:48;;;;;;;3.97;1.63;;;8.20;53.50;;;;;;5076273;28;20021;-72
2021/04/05 06:59:45;;;;;;;2.78;1.50;;;8.20;52.10;;;;;;5076573;28;20305;-71
2021/04/05 07:02:20;;;;;;;3.30;1.27;;;8.10;54.50;;;;;;5058453;28;20024;-71
2021/04/05 07:05:36;;;;;;;2.15;1.15;;;8.10;53.70;;;;;;5076151;28;20020;-71
2021/04/05 07:08:33;;;;;;;3.40;1.20;;;8.20;54.80;;;;;;4995125;28;20081;-71
2021/04/05 07:10:59;;;;;;;3.53;1.63;;;8.20;53.70;;;;;;5071517;28;20029;-71
2021/04/05 07:13:32;;;;;;;3.42;1.38;;;8.30;53.80;;;;;;5075942;28;20111;-71
2021/04/05 07:16:09;;;;;;;2.75;1.35;;;8.30;55.30;;;;;;5076128;28;20028;-71
2021/04/05 07:18:44;;;;;;;2.15;1.20;;;8.40;53.60;;;;;;5076236;28;20020;-71
2021/04/05 07:21:41;;;;;;;2.65;1.30;;;8.60;53.10;;;;;;5079962;28;20408;-71
2021/04/05 07:24:19;;;;;;;2.72;1.38;;;8.80;53.00;;;;;;5080072;28;20032;-73
2021/04/05 07:27:14;;;;;;;2.25;1.20;;;9.10;51.80;;;;;;5079879;28;20063;-71
2021/04/05 07:30:32;;;;;;;2.90;1.20;;;9.60;52.90;;;;;;5079728;28;20051;-71
2021/04/05 07:33:14;;;;;;;3.30;1.30;;;10.40;50.20;;;;;;4998469;28;20030;-71
2021/04/05 07:35:55;;;;;;;2.00;1.00;;;11.20;49.30;;;;;;4998634;28;20065;-71
2021/04/05 07:38:34;;;;;;;3.15;1.35;;;11.70;46.80;;;;;;5060464;28;20029;-71
2021/04/05 07:41:05;;;;;;;2.55;1.40;;;11.90;46.20;;;;;;5061911;28;20316;-71
2021/04/05 07:44:01;;;;;;;2.10;1.20;;;12.00;46.50;;;;;;5079248;28;20413;-73
2021/04/05 07:46:32;;;;;;;2.38;1.45;;;12.10;47.70;;;;;;5048119;28;20033;-71
2021/04/05 07:49:10;;;;;;;2.47;1.30;;;12.60;47.20;;;;;;5079187;28;20070;-74
2021/04/05 07:51:51;;;;;;;2.33;1.40;;;13.00;45.40;;;;;;5079453;28;20071;-72
2021/04/05 07:54:21;;;;;;;2.40;1.10;;;13.50;43.50;;;;;;5079075;28;20108;-72
2021/04/05 07:56:49;;;;;;;1.92;1.17;;;13.70;44.30;;;;;;5079381;28;20104;-72
2021/04/05 07:59:51;;;;;;;2.92;1.10;;;14.20;41.70;;;;;;5079041;28;20020;-72
2021/04/05 08:02:37;;;;;;;2.03;0.95;;;14.80;43.00;;;;;;5079277;28;20032;-72
2021/04/05 08:05:06;;;;;;;2.93;1.30;;;15.30;41.70;;;;;;5078933;28;20024;-72
2021/04/05 08:07:44;;;;;;;2.67;0.98;;;15.50;41.80;;;;;;5061019;28;20032;-72
2021/04/05 08:10:37;;;;;;;2.50;1.10;;;15.70;41.00;;;;;;5061041;28;20037;-72
2021/04/05 08:13:26;;;;;;;2.42;1.23;;;16.20;40.00;;;;;;5060883;28;20079;-72
2021/04/05 08:16:14;;;;;;;4.70;1.02;;;16.30;39.80;;;;;;5078920;28;20028;-72
2021/04/05 08:19:10;;;;;;;1.75;1.13;;;16.80;38.50;;;;;;5078599;28;20017;-72
2021/04/05 08:22:07;;;;;;;2.17;1.10;;;16.90;39.70;;;;;;5078618;28;20320;-72
2021/04/05 08:24:41;;;;;;;1.92;1.00;;;17.00;37.70;;;;;;5045980;28;20325;-72
2021/04/05 08:27:16;;;;;;;2.40;1.33;;;17.10;38.30;;;;;;5078577;28;20079;-72
2021/04/05 08:30:07;;;;;;;2.40;1.13;;;16.90;38.50;;;;;;5078388;28;20048;-72
2021/04/05 08:33:02;;;;;;;3.42;1.17;;;16.70;37.80;;;;;;5060441;28;20185;-72
2021/04/05 08:35:45;;;;;;;2.03;1.10;;;16.50;39.40;;;;;;5078368;28;20024;-71
2021/04/05 08:38:19;;;;;;;1.77;1.20;;;16.80;38.10;;;;;;5078522;28;20238;-73
2021/04/05 08:41:12;;;;;;;2.30;1.02;;;17.20;38.70;;;;;;5078467;28;20082;-72
2021/04/05 08:43:51;;;;;;;2.95;1.40;;;17.50;38.20;;;;;;5078344;28;20036;-71
2021/04/05 08:46:24;;;;;;;4.25;1.00;;;17.30;36.60;;;;;;5078258;28;20103;-72
2021/04/05 08:48:57;;;;;;;3.35;1.60;;;16.90;37.70;;;;;;5078244;28;20048;-71
2021/04/05 08:51:32;;;;;;;2.97;1.52;;;16.70;38.30;;;;;;5078226;28;20103;-72
2021/04/05 08:54:02;;;;;;;2.58;1.27;;;16.60;39.20;;;;;;5078309;28;20028;-72
2021/04/05 08:56:37;;;;;;;3.72;1.20;;;16.70;40.00;;;;;;5077939;28;20074;-72
2021/04/05 08:59:07;;;;;;;5.60;1.50;;;16.40;37.70;;;;;;5077891;28;20021;-72
2021/04/05 09:01:40;;;;;;;4.00;1.50;;;16.20;40.90;;;;;;5077811;28;20120;-72
2021/04/05 09:04:08;;;;;;;2.45;1.50;;;16.30;40.10;;;;;;5077801;28;20405;-72
2021/04/05 09:06:48;;;;;;;4.80;1.48;;;16.40;38.60;;;;;;5077891;28;20017;-73
2021/04/05 09:09:16;;;;;;;2.35;1.50;;;16.70;38.40;;;;;;5077878;28;20024;-73
2021/04/05 09:11:42;;;;;;;5.22;1.40;;;17.20;37.00;;;;;;5059835;28;20025;-72
2021/04/05 09:14:13;;;;;;;1.33;1.00;;;17.30;37.70;;;;;;5077486;28;20055;-72
2021/04/05 09:16:50;;;;;;;4.40;1.40;;;17.30;39.40;;;;;;5077460;28;20024;-72
2021/04/05 09:19:35;;;;;;;3.47;1.65;;;17.30;37.30;;;;;;5077704;28;20032;-72
2021/04/05 09:22:00;;;;;;;3.58;1.50;;;17.40;41.10;;;;;;5077546;28;20041;-73
2021/04/05 09:25:04;;;;;;;2.38;1.58;;;17.50;37.40;;;;;;5077262;28;20083;-71
2021/04/05 09:27:40;;;;;;;5.45;1.83;;;17.40;39.60;;;;;;5077320;28;20074;-73
2021/04/05 09:30:39;;;;;;;5.93;1.70;;;17.40;38.30;;;;;;5077125;28;20106;-72
2021/04/05 09:33:23;;;;;;;2.63;1.45;;;17.70;38.10;;;;;;5077337;28;20047;-72
2021/04/05 09:36:27;;;;;;;4.70;1.50;;;17.80;37.30;;;;;;5077403;28;20020;-72
2021/04/05 09:39:04;;;;;;;2.05;1.33;;;18.10;38.20;;;;;;5077555;28;20028;-74
2021/04/05 09:41:42;;;;;;;2.50;1.45;;;18.30;37.80;;;;;;5077155;28;20078;-71
2021/04/05 09:44:31;;;;;;;5.10;2.25;;;18.40;36.60;;;;;;5077008;28;20103;-73
2021/04/05 09:47:11;;;;;;;3.33;1.17;;;18.70;37.00;;;;;;5077024;28;20025;-73
2021/04/05 09:50:06;;;;;;;3.72;1.33;;;19.10;37.80;;;;;;5076900;28;20028;-73
2021/04/05 09:53:06;;;;;;;3.05;1.80;;;18.90;38.90;;;;;;5076922;28;20032;-74
2021/04/05 09:55:38;;;;;;;2.08;1.20;;;18.90;38.00;;;;;;5059141;28;20439;-73
2021/04/05 09:58:14;;;;;;;4.95;1.85;;;18.70;37.20;;;;;;5076860;28;20026;-71
2021/04/05 10:00:41;;;;;;;3.40;1.50;;;18.70;37.50;;;;;;5077090;28;20021;-73
2021/04/05 10:03:08;;;;;;;3.15;1.60;;;18.70;36.70;;;;;;5059010;28;20031;-73
2021/04/05 10:05:41;;;;;;;3.08;1.25;;;18.80;39.10;;;;;;5076729;28;20320;-72
2021/04/05 10:08:21;;;;;;;2.33;1.50;;;18.90;37.60;;;;;;5059029;28;20332;-71
2021/04/05 10:10:48;;;;;;;2.83;1.60;;;19.20;37.40;;;;;;5076810;28;20078;-74
2021/04/05 10:13:15;;;;;;;3.38;1.50;;;19.20;35.70;;;;;;5074532;28;20047;-72
2021/04/05 10:15:45;;;;;;;4.28;1.52;;;19.30;35.30;;;;;;5083588;28;20029;-72
2021/04/05 10:18:13;;;;;;;3.05;1.67;;;19.50;36.90;;;;;;5096976;28;20073;-72
2021/04/05 10:20:40;;;;;;;2.90;1.60;;;19.60;37.40;;;;;;5096818;28;20020;-71
2021/04/05 10:23:09;;;;;;;1.98;1.40;;;19.50;36.10;;;;;;5096706;28;20133;-72
2021/04/05 10:25:36;;;;;;;3.13;1.60;;;19.00;35.10;;;;;;5078800;28;20032;-72
2021/04/05 10:28:05;;;;;;;3.40;1.75;;;18.70;37.70;;;;;;5078830;28;20027;-73
2021/04/05 10:30:34;;;;;;;3.67;1.65;;;18.70;36.80;;;;;;5096495;28;20055;-71
2021/04/05 10:33:22;;;;;;;3.00;1.70;;;18.90;37.30;;;;;;5096640;28;20070;-73
2021/04/05 10:35:54;;;;;;;2.92;1.88;;;19.00;34.40;;;;;;5096964;28;20113;-72
2021/04/05 10:38:20;;;;;;;5.22;1.52;;;19.30;34.10;;;;;;5096529;28;20008;-72
2021/04/05 10:40:51;;;;;;;5.32;2.30;;;19.30;37.20;;;;;;5096806;28;20047;-71
2021/04/05 10:43:33;;;;;;;3.63;1.60;;;19.10;36.20;;;;;;5096549;28;20024;-71
2021/04/05 10:46:05;;;;;;;5.20;1.65;;;19.30;36.40;;;;;;5096784;28;20416;-71
2021/04/05 10:48:49;;;;;;;4.13;1.80;;;19.30;38.30;;;;;;5096609;28;20055;-71
2021/04/05 10:51:25;;;;;;;5.68;1.60;;;19.40;37.40;;;;;;5096771;28;20056;-72
2021/04/05 10:54:04;;;;;;;3.55;1.75;;;19.00;36.40;;;;;;5097072;28;20081;-73
2021/04/05 10:56:36;;;;;;;4.00;1.80;;;18.50;34.80;;;;;;5100493;28;20070;-71
2021/04/05 10:59:23;;;;;;;5.03;1.50;;;18.20;37.40;;;;;;5082377;28;20420;-73
2021/04/05 11:01:51;;;;;;;4.60;2.05;;;18.00;39.60;;;;;;5100531;28;20070;-73
2021/04/05 11:04:22;;;;;;;4.35;2.03;;;18.00;38.90;;;;;;5100175;28;20028;-73
2021/04/05 11:06:52;;;;;;;3.10;1.65;;;18.20;38.30;;;;;;5100275;28;20408;-73
2021/04/05 11:09:19;;;;;;;4.50;2.15;;;18.20;37.80;;;;;;5100396;28;20097;-73
2021/04/05 11:11:51;;;;;;;3.30;1.98;;;18.30;37.80;;;;;;5100219;28;20090;-71
2021/04/05 11:14:19;;;;;;;3.78;1.60;;;18.30;39.40;;;;;;5100068;28;20020;-73
2021/04/05 11:16:56;;;;;;;3.10;1.70;;;18.60;39.00;;;;;;5100081;28;20412;-73
2021/04/05 11:19:51;;;;;;;5.22;2.08;;;18.80;37.90;;;;;;5100173;28;20028;-73
2021/04/05 11:22:23;;;;;;;2.80;1.75;;;18.60;41.90;;;;;;5100282;28;20046;-73
2021/04/05 11:25:06;;;;;;;4.85;2.08;;;18.80;41.70;;;;;;5099995;28;20031;-73
2021/04/05 11:27:37;;;;;;;3.85;1.63;;;18.90;37.60;;;;;;5100166;28;20469;-73
2021/04/05 11:30:05;;;;;;;2.78;2.00;;;19.20;39.30;;;;;;5099740;28;20496;-71
2021/04/05 11:32:33;;;;;;;2.75;1.80;;;19.30;38.30;;;;;;5099752;28;20056;-72
2021/04/05 11:35:00;;;;;;;2.88;1.88;;;19.10;39.90;;;;;;5099919;28;20364;-73
2021/04/05 11:37:30;;;;;;;3.97;2.05;;;18.90;37.50;;;;;;5099669;28;20077;-71
2021/04/05 11:40:01;;;;;;;2.10;1.50;;;18.40;39.20;;;;;;5081697;28;20016;-73
2021/04/05 11:42:36;;;;;;;3.08;1.92;;;18.10;38.70;;;;;;5099549;28;20051;-73
2021/04/05 11:45:05;;;;;;;3.58;2.28;;;18.00;40.60;;;;;;5099458;28;20016;-73
2021/04/05 11:47:36;;;;;;;4.70;1.98;;;18.00;40.30;;;;;;5099511;28;20320;-73
2021/04/05 11:50:12;;;;;;;2.90;1.98;;;17.80;39.70;;;;;;5099584;28;20057;-72
2021/04/05 11:53:26;;;;;;;4.45;1.75;;;18.00;39.10;;;;;;5099295;28;20412;-73
2021/04/05 11:56:11;;;;;;;6.95;1.90;;;17.80;40.40;;;;;;5055400;28;20085;-73
2021/04/05 11:59:03;;;;;;;4.17;2.10;;;17.70;40.30;;;;;;5081346;28;20308;-73
2021/04/05 12:01:43;;;;;;;7.25;2.50;;;17.50;39.30;;;;;;5098625;28;20262;-73
2021/04/05 12:04:25;;;;;;;3.83;2.00;;;17.10;41.00;;;;;;5081245;28;20024;-73
2021/04/05 12:07:05;;;;;;;3.88;2.13;;;16.60;43.50;;;;;;5099069;28;20031;-73
2021/04/05 12:09:48;;;;;;;3.13;1.98;;;16.50;43.20;;;;;;5099244;28;20032;-73
2021/04/05 12:12:24;;;;;;;3.13;1.98;;;16.50;41.80;;;;;;5099330;28;20032;-73
2021/04/05 12:14:54;;;;;;;2.92;1.90;;;16.70;42.20;;;;;;5098832;28;20028;-73
2021/04/05 12:17:22;;;;;;;4.00;2.33;;;16.70;43.50;;;;;;5098871;28;20089;-73
2021/04/05 12:19:50;;;;;;;5.57;1.95;;;16.50;39.30;;;;;;5098927;28;20024;-73
2021/04/05 12:22:18;;;;;;;5.20;1.95;;;16.40;42.10;;;;;;5099083;28;20108;-73
2021/04/05 12:24:51;;;;;;;3.25;1.90;;;16.50;44.00;;;;;;5098803;28;20111;-73
2021/04/05 12:27:18;;;;;;;3.53;2.17;;;16.60;44.30;;;;;;5098993;28;20020;-73
2021/04/05 12:29:46;;;;;;;3.63;2.22;;;16.30;43.20;;;;;;5098616;28;20040;-73
2021/04/05 12:32:17;;;;;;;3.70;2.22;;;16.10;43.00;;;;;;5098674;28;20024;-72
2021/04/05 12:34:46;;;;;;;3.10;2.15;;;16.00;46.20;;;;;;5098685;28;20024;-73
2021/04/05 12:37:17;;;;;;;2.78;1.90;;;15.70;44.00;;;;;;5098506;28;20024;-73
2021/04/05 12:39:49;;;;;;;6.53;2.15;;;15.60;45.50;;;;;;5098600;28;20024;-72
2021/04/05 12:42:15;;;;;;;7.55;2.25;;;15.50;44.30;;;;;;5099037;28;20020;-72
2021/04/05 12:44:45;;;;;;;3.58;2.05;;;15.30;44.10;;;;;;5098270;28;20028;-73
2021/04/05 12:47:14;;;;;;;3.85;2.03;;;15.20;44.60;;;;;;5098375;28;20038;-72
2021/04/05 12:49:43;;;;;;;4.38;2.42;;;15.00;46.20;;;;;;5098622;28;20369;-73
2021/04/05 12:52:16;;;;;;;3.08;2.40;;;15.00;44.10;;;;;;5080279;28;20035;-73
2021/04/05 12:54:51;;;;;;;11.40;2.45;;;14.50;45.60;;;;;;5080149;28;20339;-73
2021/04/05 12:57:28;;;;;;;5.22;3.15;;;14.40;47.10;;;;;;5098768;28;20400;-73
2021/04/05 12:59:55;;;;;;;4.53;2.42;;;14.20;48.10;;;;;;5098123;28;20024;-73
2021/04/05 13:02:23;;;;;;;4.43;2.60;;;14.10;47.90;;;;;;5080135;28;20032;-72
2021/04/05 13:05:03;;;;;;;5.55;3.55;;;14.20;46.00;;;;;;5097971;28;20031;-72
2021/04/05 13:07:36;;;;;;;5.50;2.50;;;14.30;46.30;;;;;;5098271;28;20028;-73
2021/04/05 13:10:17;;;;;;;3.83;2.42;;;14.40;43.90;;;;;;5098080;28;20048;-73
2021/04/05 13:12:54;;;;;;;5.65;3.92;;;14.30;45.40;;;;;;5079911;28;20031;-72
2021/04/05 13:15:23;;;;;;;5.22;2.65;;;14.20;44.30;;;;;;5097788;28;20024;-73
2021/04/05 13:17:53;;;;;;;2.97;2.40;;;14.30;48.90;;;;;;5097301;28;20027;-72
2021/04/05 13:20:27;;;;;;;3.60;2.80;;;14.30;48.00;;;;;;5097812;28;20439;-73
2021/04/05 13:22:56;;;;;;;5.00;2.20;;;14.30;47.10;;;;;;5097741;28;20434;-73
2021/04/05 13:25:57;;;;;;;4.95;2.90;;;14.10;46.70;;;;;;5097548;28;20036;-72
2021/04/05 13:28:24;;;;;;;5.28;2.50;;;14.00;46.70;;;;;;5097715;28;20077;-73
2021/04/05 13:30:56;;;;;;;3.97;2.72;;;14.00;49.50;;;;;;5097563;28;20055;-73